Station Historical Data
Daily Summary for January 11, 2018 Units:  English    Metric   Both
« Previous Day
Next Day »
Daily Weekly Monthly Yearly Custom
  High: Low: Average:
Temperature: 59.0 °F 36.8 °F 48.1 °F
Dew Point: 54.7 °F 30.6 °F 42.6 °F
Humidity: 95 % 66 % 81 %
Wind Speed: 5.0 mph 0.0 mph 0.5 mph
Wind Gust: 9.0 mph - -
Wind:- - ESE
Pressure: 30.43 in 30.15 in -
Precipitation: 0.00 in    
Historical Graphs
 
 
Tabular Data for January 11, 2018
Time Temperature Dew Point Pressure Wind Wind Speed Wind Gust Humidity Rainfall Rate (Hourly)
00:04 36.9 °F 30.7 °F 30.43 in Calm     78 % 0.00 in
00:11 36.9 °F 30.7 °F 30.42 in Calm     78 % 0.00 in
00:17 36.8 °F 30.6 °F 30.42 in Calm     78 % 0.00 in
00:28 36.9 °F 30.7 °F 30.42 in Calm     78 % 0.00 in
00:56 36.9 °F 31.0 °F 30.41 in Calm     79 % 0.00 in
01:03 36.9 °F 31.0 °F 30.41 in Calm     79 % 0.00 in
01:10 36.9 °F 31.0 °F 30.41 in Calm     79 % 0.00 in
01:15 36.9 °F 31.0 °F 30.41 in Calm     79 % 0.00 in
01:35 37.0 °F 31.1 °F 30.41 in Calm     79 % 0.00 in
01:42 37.0 °F 31.1 °F 30.41 in Calm     79 % 0.00 in
01:57 37.0 °F 31.1 °F 30.41 in Calm     79 % 0.00 in
02:03 37.0 °F 31.4 °F 30.41 in Calm     80 % 0.00 in
02:15 37.1 °F 31.5 °F 30.41 in Calm     80 % 0.00 in
02:29 37.1 °F 31.5 °F 30.41 in Calm   1.0 mph 80 % 0.00 in
02:45 37.2 °F 31.6 °F 30.41 in Calm     80 % 0.00 in
02:53 37.3 °F 31.7 °F 30.41 in Calm     80 % 0.00 in
03:03 37.3 °F 31.7 °F 30.40 in Calm     80 % 0.00 in
03:14 37.2 °F 31.6 °F 30.40 in Calm     80 % 0.00 in
03:21 37.3 °F 31.7 °F 30.40 in Calm     80 % 0.00 in
03:28 37.4 °F 31.8 °F 30.40 in Calm     80 % 0.00 in
03:49 37.4 °F 31.8 °F 30.39 in Calm     80 % 0.00 in
04:11 37.5 °F 32.2 °F 30.38 in Calm     81 % 0.00 in
04:16 37.5 °F 32.2 °F 30.39 in Calm     81 % 0.00 in
04:26 37.5 °F 32.2 °F 30.39 in Calm     81 % 0.00 in
04:31 37.6 °F 32.3 °F 30.39 in Calm     81 % 0.00 in
04:37 37.6 °F 32.3 °F 30.39 in Calm     81 % 0.00 in
04:43 37.6 °F 32.3 °F 30.39 in Calm     81 % 0.00 in
04:54 37.7 °F 32.4 °F 30.38 in Calm     81 % 0.00 in
05:03 37.8 °F 32.5 °F 30.39 in Calm     81 % 0.00 in
05:08 37.8 °F 32.5 °F 30.38 in Calm     81 % 0.00 in
05:22 37.8 °F 32.5 °F 30.39 in Calm     81 % 0.00 in
05:27 37.9 °F 32.6 °F 30.39 in Calm     81 % 0.00 in
05:42 37.8 °F 32.5 °F 30.39 in Calm     81 % 0.00 in
05:52 37.9 °F 32.6 °F 30.40 in Calm     81 % 0.00 in
05:58 37.9 °F 32.9 °F 30.39 in Calm     82 % 0.00 in
06:03 37.9 °F 32.9 °F 30.39 in Calm     82 % 0.00 in
06:11 38.0 °F 33.0 °F 30.40 in Calm     82 % 0.00 in
06:19 38.2 °F 33.2 °F 30.40 in Calm   1.0 mph 82 % 0.00 in
06:29 38.3 °F 33.3 °F 30.40 in Calm   1.0 mph 82 % 0.00 in
06:35 38.3 °F 33.3 °F 30.40 in Calm     82 % 0.00 in
06:52 38.4 °F 33.4 °F 30.41 in Calm     82 % 0.00 in
06:59 38.4 °F 33.4 °F 30.41 in Calm     82 % 0.00 in
07:06 38.5 °F 33.5 °F 30.41 in Calm     82 % 0.00 in
07:11 38.5 °F 33.5 °F 30.41 in Calm     82 % 0.00 in
07:16 38.6 °F 33.6 °F 30.41 in Calm     82 % 0.00 in
07:22 38.6 °F 33.6 °F 30.41 in Calm     82 % 0.00 in
07:27 38.7 °F 33.7 °F 30.41 in Calm     82 % 0.00 in
07:34 38.7 °F 33.7 °F 30.41 in Calm     82 % 0.00 in
07:41 38.8 °F 33.8 °F 30.41 in Calm     82 % 0.00 in
07:46 38.8 °F 33.5 °F 30.42 in Calm     81 % 0.00 in
07:54 38.9 °F 33.9 °F 30.42 in Calm     82 % 0.00 in
07:59 38.9 °F 33.9 °F 30.42 in Calm     82 % 0.00 in
08:07 39.1 °F 33.8 °F 30.42 in Calm     81 % 0.00 in
08:18 39.3 °F 34.0 °F 30.42 in Calm     81 % 0.00 in
08:28 39.5 °F 34.2 °F 30.42 in Calm     81 % 0.00 in
08:34 39.6 °F 34.3 °F 30.42 in Calm     81 % 0.00 in
08:43 39.9 °F 34.6 °F 30.42 in Calm     81 % 0.00 in
08:50 40.2 °F 34.5 °F 30.42 in Calm     80 % 0.00 in
09:03 40.7 °F 35.0 °F 30.43 in Calm   1.0 mph 80 % 0.00 in
09:11 41.2 °F 35.5 °F 30.43 in Calm   1.0 mph 80 % 0.00 in
09:19 41.6 °F 35.9 °F 30.43 in Calm   1.0 mph 80 % 0.00 in
09:29 42.0 °F 36.0 °F 30.43 in Calm   1.0 mph 79 % 0.00 in
09:39 42.4 °F 36.1 °F 30.43 in Calm   1.0 mph 78 % 0.00 in
10:04 43.6 °F 36.9 °F 30.43 in Calm   1.0 mph 77 % 0.00 in
10:15 44.5 °F 37.5 °F 30.43 in Calm     76 % 0.00 in
10:25 45.4 °F 38.3 °F 30.43 in Calm   1.0 mph 76 % 0.00 in
10:32 46.0 °F 38.9 °F 30.43 in Calm   1.0 mph 76 % 0.00 in
10:40 46.7 °F 39.9 °F 30.42 in Calm   1.0 mph 77 % 0.00 in
10:58 48.4 °F 41.2 °F 30.41 in Calm   1.0 mph 76 % 0.00 in
11:15 50.5 °F 42.6 °F 30.41 in Calm   2.0 mph 74 % 0.00 in
11:21 51.5 °F 44.3 °F 30.40 in Calm   6.0 mph 76 % 0.00 in
11:32 52.9 °F 45.6 °F 30.40 in Calm   6.0 mph 76 % 0.00 in
11:33 52.9 °F 45.6 °F 30.40 in SW 1.0 mph 6.0 mph 76 % 0.00 in
11:47 54.0 °F 46.3 °F 30.39 in Calm   2.0 mph 75 % 0.00 in
11:56 54.9 °F 46.5 °F 30.38 in Calm   3.0 mph 73 % 0.00 in
12:01 55.4 °F 46.6 °F 30.38 in Calm   3.0 mph 72 % 0.00 in
12:16 56.4 °F 47.2 °F 30.37 in Calm   4.0 mph 71 % 0.00 in
12:31 57.2 °F 47.6 °F 30.36 in Calm   3.0 mph 70 % 0.00 in
12:37 57.4 °F 47.1 °F 30.35 in East 2.0 mph 3.0 mph 68 % 0.00 in
12:42 57.4 °F 47.1 °F 30.35 in East 1.0 mph 3.0 mph 68 % 0.00 in
12:47 57.4 °F 47.1 °F 30.34 in ESE 1.0 mph 3.0 mph 68 % 0.00 in
12:55 57.7 °F 47.7 °F 30.34 in Calm   3.0 mph 69 % 0.00 in
13:05 58.1 °F 47.7 °F 30.33 in ENE 1.0 mph 3.0 mph 68 % 0.00 in
13:10 58.3 °F 47.9 °F 30.33 in Calm   3.0 mph 68 % 0.00 in
13:20 58.5 °F 48.1 °F 30.33 in Calm   3.0 mph 68 % 0.00 in
13:26 58.6 °F 48.2 °F 30.33 in Calm   3.0 mph 68 % 0.00 in
13:34 58.7 °F 48.3 °F 30.32 in East 3.0 mph 4.0 mph 68 % 0.00 in
13:50 59.0 °F 48.2 °F 30.32 in East 1.0 mph 5.0 mph 67 % 0.00 in
13:58 58.7 °F 47.5 °F 30.32 in Calm   6.0 mph 66 % 0.00 in
14:07 58.6 °F 47.4 °F 30.31 in Calm   6.0 mph 66 % 0.00 in
14:16 58.5 °F 47.3 °F 30.31 in East 5.0 mph 7.0 mph 66 % 0.00 in
14:33 58.2 °F 47.8 °F 30.31 in Calm   8.0 mph 68 % 0.00 in
14:39 58.2 °F 47.8 °F 30.31 in Calm   8.0 mph 68 % 0.00 in
14:51 58.0 °F 48.0 °F 30.30 in East 3.0 mph 5.0 mph 69 % 0.00 in
14:58 58.0 °F 48.4 °F 30.30 in Calm   5.0 mph 70 % 0.00 in
15:04 57.9 °F 48.3 °F 30.30 in Calm   5.0 mph 70 % 0.00 in
15:10 57.9 °F 48.7 °F 30.30 in Calm   4.0 mph 71 % 0.00 in
15:19 57.8 °F 48.9 °F 30.30 in ESE 2.0 mph 4.0 mph 72 % 0.00 in
15:46 57.0 °F 49.2 °F 30.29 in SE 1.0 mph 6.0 mph 75 % 0.00 in
15:51 56.9 °F 49.5 °F 30.29 in Calm   6.0 mph 76 % 0.00 in
15:56 56.7 °F 49.3 °F 30.29 in ESE 1.0 mph 7.0 mph 76 % 0.00 in
16:03 56.6 °F 49.5 °F 30.29 in Calm   7.0 mph 77 % 0.00 in
16:11 56.4 °F 49.7 °F 30.29 in Calm   7.0 mph 78 % 0.00 in
16:17 56.4 °F 50.0 °F 30.29 in ESE 1.0 mph 6.0 mph 79 % 0.00 in
16:54 56.4 °F 51.3 °F 30.28 in ESE 1.0 mph 7.0 mph 83 % 0.00 in
17:14 56.1 °F 51.3 °F 30.28 in SE 1.0 mph 5.0 mph 84 % 0.00 in
17:28 56.1 °F 51.3 °F 30.27 in Calm   5.0 mph 84 % 0.00 in
17:33 56.0 °F 51.2 °F 30.27 in ESE 1.0 mph 4.0 mph 84 % 0.00 in
17:35 55.9 °F 51.1 °F 30.27 in ESE 2.0 mph 5.0 mph 84 % 0.00 in
17:44 55.6 °F 50.9 °F 30.26 in ENE 1.0 mph 6.0 mph 84 % 0.00 in
17:57 54.7 °F 50.3 °F 30.26 in Calm   7.0 mph 85 % 0.00 in
18:00 54.6 °F 50.2 °F 30.26 in East 1.0 mph 7.0 mph 85 % 0.00 in
18:01 54.5 °F 50.4 °F 30.26 in ESE 2.0 mph 7.0 mph 86 % 0.00 in
18:06 54.4 °F 50.3 °F 30.26 in Calm   7.0 mph 86 % 0.00 in
18:07 54.4 °F 50.3 °F 30.26 in Calm   7.0 mph 86 % 0.00 in
18:17 54.1 °F 50.0 °F 30.26 in Calm   5.0 mph 86 % 0.00 in
18:26 54.0 °F 50.2 °F 30.26 in Calm   5.0 mph 87 % 0.00 in
18:33 53.8 °F 50.0 °F 30.26 in East 1.0 mph 2.0 mph 87 % 0.00 in
18:43 53.7 °F 49.9 °F 30.25 in East 1.0 mph 3.0 mph 87 % 0.00 in
18:46 53.7 °F 50.2 °F 30.25 in Calm   3.0 mph 88 % 0.00 in
18:54 53.8 °F 50.3 °F 30.25 in Calm   3.0 mph 88 % 0.00 in
19:00 53.9 °F 50.4 °F 30.25 in Calm   2.0 mph 88 % 0.00 in
19:27 54.6 °F 51.4 °F 30.24 in SE 1.0 mph 3.0 mph 89 % 0.00 in
19:35 54.7 °F 51.8 °F 30.24 in ENE 2.0 mph 3.0 mph 90 % 0.00 in
19:48 54.7 °F 52.1 °F 30.23 in Calm   3.0 mph 91 % 0.00 in
20:07 54.8 °F 52.2 °F 30.22 in Calm   5.0 mph 91 % 0.00 in
20:18 55.2 °F 52.6 °F 30.22 in East 1.0 mph 5.0 mph 91 % 0.00 in
20:41 55.4 °F 52.8 °F 30.21 in East 3.0 mph 7.0 mph 91 % 0.00 in
20:43 55.4 °F 53.1 °F 30.21 in East 3.0 mph 7.0 mph 92 % 0.00 in
20:49 55.5 °F 53.2 °F 30.21 in ESE 1.0 mph 9.0 mph 92 % 0.00 in
21:00 55.4 °F 53.1 °F 30.21 in Calm   9.0 mph 92 % 0.00 in
21:06 55.4 °F 53.4 °F 30.20 in Calm   8.0 mph 93 % 0.00 in
21:14 55.5 °F 53.5 °F 30.20 in ESE 1.0 mph 8.0 mph 93 % 0.00 in
21:22 55.6 °F 53.6 °F 30.20 in Calm   7.0 mph 93 % 0.00 in
21:39 56.0 °F 54.3 °F 30.20 in ESE 2.0 mph 7.0 mph 94 % 0.00 in
21:50 56.0 °F 54.3 °F 30.19 in Calm   7.0 mph 94 % 0.00 in
21:56 56.0 °F 54.3 °F 30.19 in East 5.0 mph 6.0 mph 94 % 0.00 in
22:03 56.0 °F 54.3 °F 30.18 in ESE 2.0 mph 7.0 mph 94 % 0.00 in
22:14 55.8 °F 54.4 °F 30.17 in East 1.0 mph 7.0 mph 95 % 0.00 in
22:21 55.8 °F 54.4 °F 30.17 in SE 2.0 mph 6.0 mph 95 % 0.00 in
22:31 56.1 °F 54.6 °F 30.17 in East 2.0 mph 8.0 mph 95 % 0.00 in
22:37 56.2 °F 54.7 °F 30.17 in East 1.0 mph 8.0 mph 95 % 0.00 in
22:42 56.2 °F 54.7 °F 30.17 in SE 1.0 mph 8.0 mph 95 % 0.00 in
22:47 56.2 °F 54.7 °F 30.17 in ENE 2.0 mph 6.0 mph 95 % 0.00 in
22:55 56.2 °F 54.7 °F 30.17 in ENE 1.0 mph 5.0 mph 95 % 0.00 in
23:10 56.1 °F 54.6 °F 30.16 in SE 1.0 mph 8.0 mph 95 % 0.00 in
23:18 56.0 °F 54.5 °F 30.15 in Calm   8.0 mph 95 % 0.00 in
23:24 56.0 °F 54.5 °F 30.15 in Calm   6.0 mph 95 % 0.00 in
23:30 55.9 °F 54.5 °F 30.15 in SE 2.0 mph 6.0 mph 95 % 0.00 in
23:44 55.8 °F 54.4 °F 30.15 in Calm   5.0 mph 95 % 0.00 in
23:51 55.8 °F 54.4 °F 30.15 in Calm   5.0 mph 95 % 0.00 in
MarylandWx.com
Compliments of Weather Underground - 5.75 mb